createdAt,value
2018-06-27T00:00:42.228Z,34.73
2018-06-27T00:03:10.431Z,32.73
2018-06-27T00:05:39.088Z,33.30
2018-06-27T00:08:07.868Z,33.57
2018-06-27T00:10:36.449Z,34.20
2018-06-27T00:13:04.912Z,32.20
2018-06-27T00:15:33.669Z,30.10
2018-06-27T00:18:02.113Z,33.17
2018-06-27T00:20:30.701Z,34.23
2018-06-27T00:22:59.235Z,36.43
2018-06-27T00:25:27.967Z,31.93
2018-06-27T00:27:56.445Z,32.57
2018-06-27T00:30:25.028Z,32.93
2018-06-27T00:32:53.564Z,32.10
2018-06-27T00:35:22.041Z,36.87
2018-06-27T00:37:50.469Z,33.67
2018-06-27T00:40:18.939Z,33.40
2018-06-27T00:42:47.546Z,34.40
2018-06-27T00:45:16.195Z,33.70
2018-06-27T00:47:44.622Z,35.17
2018-06-27T00:50:12.788Z,33.87
2018-06-27T00:52:41.259Z,32.50
2018-06-27T00:55:09.721Z,31.70
2018-06-27T00:57:38.156Z,31.83
2018-06-27T01:00:06.644Z,32.83
2018-06-27T01:02:34.747Z,34.40
2018-06-27T01:05:03.219Z,32.73
2018-06-27T01:07:31.666Z,34.70
2018-06-27T01:10:00.192Z,36.00
2018-06-27T01:12:28.656Z,33.90
2018-06-27T01:14:57.302Z,33.63
2018-06-27T01:17:25.729Z,39.60
2018-06-27T01:19:54.205Z,34.23
2018-06-27T01:22:22.684Z,36.73
2018-06-27T01:24:51.223Z,35.67
2018-06-27T01:27:20.705Z,33.03
2018-06-27T01:29:49.220Z,32.93
2018-06-27T01:32:17.357Z,34.57
2018-06-27T01:34:45.827Z,35.33
2018-06-27T01:37:14.477Z,36.10
2018-06-27T01:39:42.942Z,33.90
2018-06-27T01:42:11.415Z,33.30
2018-06-27T01:44:39.864Z,30.47
2018-06-27T01:47:08.335Z,33.03
2018-06-27T01:49:36.947Z,32.33
2018-06-27T01:52:05.493Z,34.97
2018-06-27T01:54:34.303Z,33.80
2018-06-27T01:57:02.805Z,34.20
2018-06-27T01:59:31.250Z,35.30
2018-06-27T02:01:59.984Z,35.87
2018-06-27T02:04:28.569Z,37.17
2018-06-27T02:06:57.184Z,37.40
2018-06-27T02:09:25.301Z,33.03
2018-06-27T02:11:53.755Z,37.03
2018-06-27T02:14:22.430Z,35.63
2018-06-27T02:16:51.469Z,37.50
2018-06-27T02:19:19.929Z,35.87
2018-06-27T02:21:48.438Z,36.37
2018-06-27T02:24:16.993Z,35.60
2018-06-27T02:26:45.610Z,36.07
2018-06-27T02:29:14.063Z,40.90
2018-06-27T02:31:42.906Z,37.87
2018-06-27T02:34:11.362Z,40.07
2018-06-27T02:36:39.981Z,38.10
2018-06-27T02:39:09.899Z,35.73
2018-06-27T02:41:39.492Z,38.67
2018-06-27T02:44:08.384Z,38.30
2018-06-27T02:46:37.197Z,34.77
2018-06-27T02:49:05.323Z,33.40
2018-06-27T02:51:33.822Z,32.80
2018-06-27T02:54:02.333Z,32.83
2018-06-27T02:56:30.481Z,33.60
2018-06-27T02:58:58.940Z,36.37
2018-06-27T03:01:27.389Z,34.30
2018-06-27T03:03:55.897Z,33.90
2018-06-27T03:06:24.350Z,32.57
2018-06-27T03:08:52.813Z,32.37
2018-06-27T03:11:21.303Z,31.60
2018-06-27T03:13:49.425Z,37.80
2018-06-27T03:16:17.884Z,31.93
2018-06-27T03:18:54.045Z,31.97
2018-06-27T03:21:23.103Z,33.00
2018-06-27T03:23:51.799Z,35.80
2018-06-27T03:26:20.395Z,35.80
2018-06-27T03:28:48.544Z,36.03
2018-06-27T03:31:19.100Z,36.23
2018-06-27T03:33:47.686Z,34.90
2018-06-27T03:36:16.245Z,33.90
2018-06-27T03:38:44.776Z,34.90
2018-06-27T03:41:13.358Z,37.60
2018-06-27T03:43:41.868Z,39.27
2018-06-27T03:46:10.376Z,36.37
2018-06-27T03:48:38.836Z,36.93
2018-06-27T03:51:07.381Z,37.47
2018-06-27T03:53:43.167Z,38.13
2018-06-27T03:56:12.665Z,37.40
2018-06-27T03:58:41.156Z,37.30
2018-06-27T04:01:10.687Z,37.97
2018-06-27T04:03:40.623Z,34.60
2018-06-27T04:06:10.209Z,34.80
2018-06-27T04:08:38.689Z,34.97
2018-06-27T04:11:07.152Z,37.17
2018-06-27T04:13:35.865Z,35.40
2018-06-27T04:16:04.307Z,36.47
2018-06-27T04:18:32.835Z,39.20
2018-06-27T04:21:01.318Z,37.07
2018-06-27T04:23:29.760Z,37.90
2018-06-27T04:25:58.196Z,36.77
2018-06-27T04:28:26.425Z,37.33
2018-06-27T04:30:54.915Z,40.10
2018-06-27T04:33:23.376Z,36.47
2018-06-27T04:35:52.166Z,37.90
2018-06-27T04:38:20.663Z,34.47
2018-06-27T04:40:49.181Z,37.60
2018-06-27T04:43:17.452Z,34.13
2018-06-27T04:45:45.839Z,34.17
2018-06-27T04:48:14.356Z,34.23
2018-06-27T04:50:42.856Z,34.80
2018-06-27T04:53:11.410Z,31.30
2018-06-27T04:55:39.876Z,33.73
2018-06-27T04:58:08.302Z,34.60
2018-06-27T05:00:36.831Z,35.60
2018-06-27T05:03:05.292Z,31.90
2018-06-27T05:05:33.784Z,33.03
2018-06-27T05:08:02.434Z,32.17
2018-06-27T05:10:30.868Z,31.87
2018-06-27T05:12:59.471Z,32.60
2018-06-27T05:15:27.592Z,28.30
2018-06-27T05:17:56.111Z,32.23
2018-06-27T05:20:24.600Z,31.20
2018-06-27T05:22:53.250Z,30.00
2018-06-27T05:25:21.973Z,29.53
2018-06-27T05:27:50.426Z,28.03
2018-06-27T05:30:18.917Z,29.63
2018-06-27T05:32:47.561Z,27.73
2018-06-27T05:35:16.096Z,27.90
2018-06-27T05:37:44.591Z,28.87
2018-06-27T05:40:13.382Z,27.20
2018-06-27T05:42:41.811Z,28.40
2018-06-27T05:45:10.324Z,28.03
2018-06-27T05:47:38.973Z,28.60
2018-06-27T05:50:07.894Z,28.57
2018-06-27T05:52:36.496Z,29.20
2018-06-27T05:55:08.237Z,28.50
2018-06-27T05:57:38.128Z,27.40
2018-06-27T06:00:07.594Z,27.07
2018-06-27T06:02:36.444Z,29.57
2018-06-27T06:05:05.783Z,29.03
2018-06-27T06:07:34.473Z,30.65
2018-06-27T06:10:03.712Z,30.23
2018-06-27T06:12:33.379Z,30.87
2018-06-27T06:15:01.914Z,27.30
2018-06-27T06:17:30.464Z,29.37
2018-06-27T06:19:58.982Z,29.67
2018-06-27T06:22:27.472Z,28.05
2018-06-27T06:24:55.935Z,27.47
2018-06-27T06:27:24.388Z,28.90
2018-06-27T06:29:52.829Z,29.70
2018-06-27T06:32:21.457Z,27.87
2018-06-27T06:34:49.931Z,27.50
2018-06-27T06:37:18.380Z,28.83
2018-06-27T06:39:47.882Z,29.40
2018-06-27T06:42:16.362Z,29.60
2018-06-27T06:44:44.820Z,27.73
2018-06-27T06:47:13.289Z,27.90
2018-06-27T06:49:41.879Z,30.32
2018-06-27T06:52:10.441Z,30.02
2018-06-27T06:54:38.915Z,30.12
2018-06-27T06:57:07.359Z,29.67
2018-06-27T06:59:35.839Z,30.25
2018-06-27T07:02:04.397Z,28.85
2018-06-27T07:04:32.825Z,29.65
2018-06-27T07:07:01.573Z,29.20
2018-06-27T07:09:30.319Z,30.37
2018-06-27T07:11:58.849Z,29.92
2018-06-27T07:14:27.386Z,30.65
2018-06-27T07:16:55.873Z,32.42
2018-06-27T07:19:24.308Z,32.58
2018-06-27T07:21:52.905Z,30.68
2018-06-27T07:24:21.393Z,32.00
2018-06-27T07:26:49.934Z,31.33
2018-06-27T07:29:18.451Z,27.75
2018-06-27T07:31:47.486Z,28.52
2018-06-27T07:34:16.541Z,29.50
2018-06-27T07:36:45.118Z,28.83
2018-06-27T07:39:13.574Z,29.35
2018-06-27T07:41:42.637Z,27.87
2018-06-27T07:44:14.768Z,28.38
2018-06-27T07:46:43.307Z,24.20
2018-06-27T07:49:11.740Z,23.40
2018-06-27T07:51:40.145Z,26.85
2018-06-27T07:54:08.601Z,25.62
2018-06-27T07:56:37.110Z,21.57
2018-06-27T07:59:05.795Z,21.35
2018-06-27T08:01:33.951Z,22.37
2018-06-27T08:04:02.364Z,17.60
2018-06-27T08:06:36.045Z,15.45
2018-06-27T08:09:07.740Z,18.05
2018-06-27T08:11:36.241Z,18.57
2018-06-27T08:14:05.136Z,19.10
2018-06-27T08:16:34.145Z,18.07
2018-06-27T08:19:02.641Z,17.00
2018-06-27T08:21:31.103Z,16.70
2018-06-27T08:23:59.661Z,16.67
2018-06-27T08:26:28.446Z,16.73
2018-06-27T08:28:56.695Z,17.45
2018-06-27T08:31:25.214Z,17.02
2018-06-27T08:33:53.734Z,18.17
2018-06-27T08:36:22.251Z,16.23
2018-06-27T08:38:50.898Z,15.43
2018-06-27T08:41:19.429Z,15.65
2018-06-27T08:43:48.223Z,15.90
2018-06-27T08:46:16.619Z,16.97
2018-06-27T08:48:45.108Z,14.70
2018-06-27T08:51:13.588Z,13.38
2018-06-27T08:53:42.307Z,12.70
2018-06-27T08:56:11.005Z,12.82
2018-06-27T08:58:39.466Z,13.62
2018-06-27T09:01:08.232Z,12.35
2018-06-27T09:03:36.760Z,10.63
2018-06-27T09:06:05.349Z,10.72
2018-06-27T09:08:33.821Z,9.73
2018-06-27T09:11:02.585Z,9.63
2018-06-27T09:13:31.094Z,10.18
2018-06-27T09:15:59.891Z,11.35
2018-06-27T09:18:28.369Z,10.35
2018-06-27T09:20:56.852Z,10.93
2018-06-27T09:23:25.397Z,9.50
2018-06-27T09:25:53.965Z,10.48
2018-06-27T09:28:22.397Z,11.80
2018-06-27T09:30:51.023Z,11.20
2018-06-27T09:33:19.518Z,11.38
2018-06-27T09:35:47.928Z,9.08
2018-06-27T09:38:16.862Z,8.63
2018-06-27T09:40:45.588Z,7.22
2018-06-27T09:43:14.096Z,8.15
2018-06-27T09:45:42.583Z,7.87
2018-06-27T09:48:11.152Z,6.22
2018-06-27T09:50:39.669Z,5.50
2018-06-27T09:53:08.236Z,6.80
2018-06-27T09:55:36.717Z,6.62
2018-06-27T09:58:05.209Z,6.15
2018-06-27T10:00:39.519Z,6.22
2018-06-27T10:03:09.283Z,5.85
2018-06-27T10:05:38.749Z,6.37
2018-06-27T10:08:07.677Z,7.30
2018-06-27T10:10:36.224Z,6.85
2018-06-27T10:13:05.031Z,7.87
2018-06-27T10:15:33.489Z,7.40
2018-06-27T10:18:01.929Z,6.60
2018-06-27T10:20:30.393Z,5.72
2018-06-27T10:22:58.888Z,6.83
2018-06-27T10:25:27.426Z,7.03
2018-06-27T10:27:55.912Z,5.55
2018-06-27T10:30:24.392Z,6.45
2018-06-27T10:32:52.905Z,6.90
2018-06-27T10:35:21.554Z,6.85
2018-06-27T10:37:50.064Z,5.42
2018-06-27T10:40:18.608Z,5.37
2018-06-27T10:42:47.075Z,5.25
2018-06-27T10:45:15.630Z,5.70
2018-06-27T10:47:44.104Z,6.15
2018-06-27T10:50:12.656Z,5.53
2018-06-27T10:52:41.173Z,4.90
2018-06-27T10:55:15.179Z,5.45
2018-06-27T10:57:43.669Z,5.08
2018-06-27T11:00:12.341Z,4.97
2018-06-27T11:02:40.845Z,4.70
2018-06-27T11:05:09.498Z,5.83
2018-06-27T11:07:38.100Z,3.65
2018-06-27T11:10:07.229Z,5.10
2018-06-27T11:12:35.641Z,4.17
2018-06-27T11:15:04.171Z,4.37
2018-06-27T11:17:38.174Z,4.07
2018-06-27T11:20:09.696Z,4.20
2018-06-27T11:22:41.339Z,4.25
2018-06-27T11:25:17.136Z,4.33
2018-06-27T11:27:49.730Z,4.00
2018-06-27T11:30:19.832Z,5.03
2018-06-27T11:32:48.908Z,5.10
2018-06-27T11:35:24.768Z,5.72
2018-06-27T11:37:53.269Z,5.80
2018-06-27T11:40:22.004Z,5.40
2018-06-27T11:42:50.501Z,5.60
2018-06-27T11:45:26.572Z,6.22
2018-06-27T11:47:55.122Z,6.42
2018-06-27T11:50:24.274Z,5.33
2018-06-27T11:52:52.857Z,6.85
2018-06-27T11:55:21.372Z,5.17
2018-06-27T11:57:49.893Z,5.62
2018-06-27T12:00:18.478Z,4.72
2018-06-27T12:02:47.053Z,5.35
2018-06-27T12:05:15.578Z,4.53
2018-06-27T12:07:44.214Z,4.33
2018-06-27T12:10:12.801Z,3.92
2018-06-27T12:12:41.709Z,4.20
2018-06-27T12:15:10.517Z,4.47
2018-06-27T12:17:39.982Z,4.30
2018-06-27T12:20:08.553Z,3.85
2018-06-27T12:22:37.084Z,4.37
2018-06-27T12:25:05.877Z,4.67
2018-06-27T12:27:34.551Z,5.70
2018-06-27T12:30:03.209Z,4.37
2018-06-27T12:32:31.975Z,2.95
2018-06-27T12:35:00.581Z,3.42
2018-06-27T12:37:29.065Z,3.58
2018-06-27T12:39:57.618Z,3.40
2018-06-27T12:42:26.093Z,3.83
2018-06-27T12:44:54.968Z,2.60
2018-06-27T12:47:23.531Z,3.37
2018-06-27T12:49:52.428Z,4.00
2018-06-27T12:52:20.969Z,4.25
2018-06-27T12:54:52.086Z,3.90
2018-06-27T12:57:20.600Z,4.15
2018-06-27T12:59:49.136Z,3.50
2018-06-27T13:02:17.646Z,4.30
2018-06-27T13:04:47.167Z,5.67
2018-06-27T13:07:15.709Z,4.10
2018-06-27T13:09:44.105Z,6.05
2018-06-27T13:12:12.665Z,5.30
2018-06-27T13:14:41.138Z,5.25
2018-06-27T13:17:11.416Z,5.17
2018-06-27T13:19:39.960Z,6.60
2018-06-27T13:22:08.561Z,6.53
2018-06-27T13:24:37.454Z,6.17
2018-06-27T13:27:06.351Z,6.67
2018-06-27T13:29:34.836Z,7.03
2018-06-27T13:32:03.680Z,6.15
2018-06-27T13:34:32.290Z,6.67
2018-06-27T13:37:00.906Z,5.47
2018-06-27T13:39:29.395Z,6.40
2018-06-27T13:41:58.014Z,6.55
2018-06-27T13:44:26.615Z,5.90
2018-06-27T13:46:55.150Z,5.72
2018-06-27T13:49:23.911Z,5.33
2018-06-27T13:51:52.485Z,5.78
2018-06-27T13:54:20.699Z,5.72
2018-06-27T13:56:49.253Z,5.37
2018-06-27T13:59:18.259Z,4.67
2018-06-27T14:01:47.234Z,4.58
2018-06-27T14:04:15.884Z,4.30
2018-06-27T14:06:44.377Z,4.00
2018-06-27T14:09:13.068Z,4.17
2018-06-27T14:11:41.643Z,5.65
2018-06-27T14:14:10.598Z,5.85
2018-06-27T14:16:39.494Z,3.58
2018-06-27T14:19:07.980Z,4.65
2018-06-27T14:21:36.796Z,4.25
2018-06-27T14:24:05.748Z,4.60
2018-06-27T14:26:34.309Z,4.50
2018-06-27T14:29:03.456Z,2.72
2018-06-27T14:31:31.962Z,2.80
2018-06-27T14:34:00.439Z,3.47
2018-06-27T14:36:28.889Z,2.50
2018-06-27T14:38:57.354Z,2.70
2018-06-27T14:41:25.956Z,2.42
2018-06-27T14:43:54.612Z,2.25
2018-06-27T14:46:23.503Z,2.90
2018-06-27T14:48:52.073Z,2.62
2018-06-27T14:51:20.543Z,3.12
2018-06-27T14:53:49.037Z,2.42
2018-06-27T14:56:17.605Z,2.92
2018-06-27T14:58:46.043Z,2.83
2018-06-27T15:01:14.537Z,3.70
2018-06-27T15:03:42.970Z,3.42
2018-06-27T15:06:11.495Z,3.33
2018-06-27T15:08:39.965Z,3.52
2018-06-27T15:11:08.844Z,3.12
2018-06-27T15:13:37.315Z,2.80
2018-06-27T15:16:05.841Z,2.80
2018-06-27T15:18:34.396Z,3.70
2018-06-27T15:21:02.964Z,4.15
2018-06-27T15:23:31.548Z,4.80
2018-06-27T15:26:00.066Z,4.25
2018-06-27T15:28:29.555Z,4.35
2018-06-27T15:30:58.044Z,3.80
2018-06-27T15:33:26.552Z,3.60
2018-06-27T15:35:55.016Z,4.10
2018-06-27T15:38:23.516Z,4.10
2018-06-27T15:40:52.589Z,4.50
2018-06-27T15:43:21.386Z,4.13
2018-06-27T15:45:49.942Z,4.50
2018-06-27T15:48:18.557Z,4.13
2018-06-27T15:50:47.063Z,4.50
2018-06-27T15:53:15.605Z,3.90
2018-06-27T15:55:44.140Z,4.43
2018-06-27T15:58:12.752Z,3.80
2018-06-27T16:00:41.251Z,4.43
2018-06-27T16:03:09.818Z,4.77
2018-06-27T16:05:38.641Z,4.97
2018-06-27T16:08:09.021Z,4.77
2018-06-27T16:10:37.820Z,4.83
2018-06-27T16:13:06.544Z,4.90
2018-06-27T16:15:35.107Z,5.27
2018-06-27T16:18:03.603Z,4.60
2018-06-27T16:20:32.229Z,4.40
2018-06-27T16:23:00.824Z,4.23
2018-06-27T16:25:29.320Z,4.97
2018-06-27T16:27:57.926Z,4.40
2018-06-27T16:30:26.420Z,4.30
2018-06-27T16:32:54.973Z,4.27
2018-06-27T16:35:23.508Z,3.87
2018-06-27T16:37:52.126Z,5.20
2018-06-27T16:40:20.667Z,3.90
2018-06-27T16:42:49.148Z,4.47
2018-06-27T16:45:18.735Z,4.20
2018-06-27T16:47:47.216Z,4.00
2018-06-27T16:50:15.662Z,3.40
2018-06-27T16:52:44.299Z,4.67
2018-06-27T16:55:12.783Z,3.43
2018-06-27T16:57:41.320Z,3.53
2018-06-27T17:00:10.109Z,4.00
2018-06-27T17:02:38.922Z,3.87
2018-06-27T17:05:07.840Z,4.10
2018-06-27T17:07:36.597Z,4.13
2018-06-27T17:10:06.028Z,4.47
2018-06-27T17:12:34.627Z,3.70
2018-06-27T17:15:02.789Z,3.70
2018-06-27T17:17:31.356Z,3.80
2018-06-27T17:19:59.999Z,4.20
2018-06-27T17:22:28.841Z,3.33
2018-06-27T17:24:57.329Z,3.23
2018-06-27T17:27:25.942Z,2.93
2018-06-27T17:29:54.702Z,2.53
2018-06-27T17:32:23.534Z,2.67
2018-06-27T17:34:52.104Z,2.03
2018-06-27T17:37:20.919Z,2.70
2018-06-27T17:39:49.451Z,2.20
2018-06-27T17:42:17.985Z,2.90
2018-06-27T17:44:46.924Z,2.67
2018-06-27T17:47:15.407Z,2.63
2018-06-27T17:49:43.969Z,2.80
2018-06-27T17:52:12.905Z,2.13
2018-06-27T17:54:41.038Z,3.30
2018-06-27T17:57:09.558Z,2.57
2018-06-27T17:59:38.040Z,2.40
2018-06-27T18:02:06.765Z,3.07
2018-06-27T18:04:35.516Z,2.70
2018-06-27T18:07:04.089Z,3.13
2018-06-27T18:09:32.945Z,3.00
2018-06-27T18:12:01.592Z,3.30
2018-06-27T18:14:30.092Z,2.70
2018-06-27T18:16:59.066Z,3.40
2018-06-27T18:19:27.558Z,3.00
2018-06-27T18:21:56.142Z,3.47
2018-06-27T18:24:25.114Z,3.20
2018-06-27T18:26:53.720Z,3.03
2018-06-27T18:29:22.289Z,3.60
2018-06-27T18:31:50.899Z,3.30
2018-06-27T18:34:19.436Z,3.30
2018-06-27T18:36:48.628Z,3.70
2018-06-27T18:39:17.375Z,4.43
2018-06-27T18:41:45.811Z,3.73
2018-06-27T18:44:14.598Z,3.67
2018-06-27T18:46:43.137Z,3.17
2018-06-27T18:49:11.703Z,3.67
2018-06-27T18:51:40.242Z,4.00
2018-06-27T18:54:08.842Z,3.53
2018-06-27T18:56:37.526Z,3.60
2018-06-27T18:59:06.121Z,3.80
2018-06-27T19:01:34.903Z,3.90
2018-06-27T19:04:04.327Z,3.90
2018-06-27T19:06:32.873Z,3.20
2018-06-27T19:09:01.473Z,4.30
2018-06-27T19:11:30.103Z,4.30
2018-06-27T19:13:58.589Z,3.60
2018-06-27T19:16:27.043Z,4.53
2018-06-27T19:18:56.324Z,3.90
2018-06-27T19:21:25.060Z,3.80
2018-06-27T19:23:53.892Z,4.07
2018-06-27T19:26:22.830Z,3.67
2018-06-27T19:28:51.302Z,3.60
2018-06-27T19:31:21.100Z,4.63
2018-06-27T19:33:49.362Z,3.77
2018-06-27T19:36:17.863Z,3.90
2018-06-27T19:38:46.734Z,3.97
2018-06-27T19:41:15.862Z,4.30
2018-06-27T19:43:44.414Z,3.70
2018-06-27T19:46:13.225Z,4.40
2018-06-27T19:48:41.726Z,3.70
2018-06-27T19:51:10.300Z,4.10
2018-06-27T19:53:38.879Z,3.53
2018-06-27T19:56:07.497Z,3.87
2018-06-27T19:58:37.402Z,4.27
2018-06-27T20:01:06.093Z,3.63
2018-06-27T20:03:45.634Z,4.33
2018-06-27T20:06:14.201Z,4.30
2018-06-27T20:08:42.785Z,5.03
2018-06-27T20:11:11.322Z,4.10
2018-06-27T20:13:40.453Z,3.07
2018-06-27T20:16:09.106Z,4.30
2018-06-27T20:18:37.508Z,4.80
2018-06-27T20:21:06.052Z,4.00
2018-06-27T20:23:34.796Z,3.83
2018-06-27T20:26:03.587Z,3.53
2018-06-27T20:28:32.266Z,3.83
2018-06-27T20:31:00.761Z,3.87
2018-06-27T20:33:29.432Z,3.90
2018-06-27T20:35:57.968Z,4.50
2018-06-27T20:38:26.628Z,4.60
2018-06-27T20:40:55.892Z,4.27
2018-06-27T20:43:24.481Z,4.07
2018-06-27T20:45:53.174Z,4.20
2018-06-27T20:48:21.686Z,3.87
2018-06-27T20:50:50.164Z,4.20
2018-06-27T20:53:18.735Z,4.67
2018-06-27T20:55:47.216Z,3.80
2018-06-27T20:58:15.774Z,4.13
2018-06-27T21:00:45.042Z,4.23
2018-06-27T21:03:13.556Z,3.20
2018-06-27T21:05:42.205Z,3.60
2018-06-27T21:08:10.809Z,3.73
2018-06-27T21:10:39.476Z,3.90
2018-06-27T21:13:08.330Z,4.23
2018-06-27T21:15:37.291Z,3.93
2018-06-27T21:18:07.892Z,3.67
2018-06-27T21:20:36.426Z,4.17
2018-06-27T21:23:05.358Z,3.80
2018-06-27T21:25:33.831Z,5.03
2018-06-27T21:28:02.290Z,4.73
2018-06-27T21:30:31.081Z,4.90
2018-06-27T21:32:59.561Z,3.97
2018-06-27T21:35:28.147Z,4.80
2018-06-27T21:37:56.653Z,3.70
2018-06-27T21:40:25.641Z,4.20
2018-06-27T21:42:54.531Z,3.30
2018-06-27T21:45:23.045Z,3.70
2018-06-27T21:47:51.581Z,4.27
2018-06-27T21:50:20.008Z,4.30
2018-06-27T21:52:48.614Z,3.93
2018-06-27T21:55:17.352Z,3.77
2018-06-27T21:57:46.158Z,4.33
2018-06-27T22:00:15.799Z,3.80
2018-06-27T22:02:44.470Z,4.20
2018-06-27T22:05:12.991Z,4.20
2018-06-27T22:07:41.482Z,4.37
2018-06-27T22:10:10.105Z,3.67
2018-06-27T22:12:38.697Z,4.20
2018-06-27T22:15:07.201Z,4.50
2018-06-27T22:17:35.770Z,3.90
2018-06-27T22:20:04.329Z,5.30
2018-06-27T22:22:32.751Z,4.93
2018-06-27T22:25:01.190Z,4.40
2018-06-27T22:27:29.692Z,4.93
2018-06-27T22:29:58.126Z,4.93
2018-06-27T22:32:26.544Z,3.53
2018-06-27T22:34:55.037Z,4.37
2018-06-27T22:37:23.492Z,5.10
2018-06-27T22:39:52.019Z,5.43
2018-06-27T22:42:20.486Z,4.97
2018-06-27T22:44:48.962Z,4.53
2018-06-27T22:47:17.525Z,4.60
2018-06-27T22:49:46.050Z,6.27
2018-06-27T22:52:14.593Z,5.20
2018-06-27T22:54:43.044Z,5.27
2018-06-27T22:57:11.605Z,5.33
2018-06-27T22:59:40.129Z,5.70
2018-06-27T23:02:09.025Z,5.20
2018-06-27T23:04:37.512Z,6.10
2018-06-27T23:07:05.664Z,5.00
2018-06-27T23:09:34.157Z,5.90
2018-06-27T23:12:02.585Z,5.67
2018-06-27T23:14:31.237Z,4.83
2018-06-27T23:16:59.686Z,5.60
2018-06-27T23:19:28.261Z,5.80
2018-06-27T23:21:56.589Z,5.03
2018-06-27T23:24:25.029Z,6.07
2018-06-27T23:26:53.609Z,5.03
2018-06-27T23:29:22.538Z,5.30
2018-06-27T23:31:51.180Z,6.10
2018-06-27T23:34:19.634Z,6.70
2018-06-27T23:36:48.147Z,5.60
2018-06-27T23:39:16.612Z,6.10
2018-06-27T23:41:45.561Z,5.60
2018-06-27T23:44:14.013Z,6.40
2018-06-27T23:46:42.506Z,5.33
2018-06-27T23:49:11.024Z,5.40
2018-06-27T23:51:39.936Z,6.60
2018-06-27T23:54:08.476Z,8.00
2018-06-27T23:56:36.957Z,6.10
2018-06-27T23:59:05.407Z,6.03
